createdAt,value
2018-07-05T05:05:44.832Z,20.24
2018-07-05T05:11:05.768Z,20.60
2018-07-05T05:16:26.838Z,20.72
2018-07-05T05:21:48.624Z,20.75
2018-07-05T05:27:09.806Z,20.95
2018-07-05T05:32:31.108Z,21.27
2018-07-05T05:37:52.296Z,21.29
2018-07-05T05:43:13.322Z,21.28
2018-07-05T05:48:35.178Z,21.25
2018-07-05T05:53:56.291Z,21.12
2018-07-05T05:59:18.107Z,21.24
2018-07-05T06:04:39.285Z,21.31
2018-07-05T06:10:00.383Z,21.23
2018-07-05T06:15:21.461Z,21.26
2018-07-05T06:20:42.630Z,21.39
2018-07-05T06:26:03.881Z,21.61
2018-07-05T06:31:25.743Z,21.90
2018-07-05T06:36:47.699Z,22.24
2018-07-05T06:42:08.914Z,22.25
2018-07-05T06:47:30.801Z,22.26
2018-07-05T06:52:51.902Z,22.19
2018-07-05T06:58:13.011Z,22.42
2018-07-05T07:03:34.024Z,22.53
2018-07-05T07:08:55.078Z,22.16
2018-07-05T07:14:16.921Z,22.32
2018-07-05T07:19:38.800Z,22.25
2018-07-05T07:25:00.685Z,22.32
2018-07-05T07:30:22.213Z,22.27
2018-07-05T07:35:43.404Z,22.16
2018-07-05T07:41:04.474Z,22.00
2018-07-05T07:46:07.011Z,22.17
2018-07-05T07:51:09.567Z,22.28
2018-07-05T07:56:12.114Z,22.60
2018-07-05T08:01:14.648Z,22.82
2018-07-05T08:06:17.191Z,22.84
2018-07-05T08:11:20.489Z,23.06
2018-07-05T08:16:23.794Z,23.24
2018-07-05T08:21:26.329Z,22.98
2018-07-05T08:26:28.877Z,23.31
2018-07-05T08:31:31.451Z,23.60
2018-07-05T08:36:34.003Z,23.16
2018-07-05T08:41:36.547Z,23.28
2018-07-05T08:46:39.087Z,23.51
2018-07-05T08:51:42.393Z,23.80
2018-07-05T08:56:44.931Z,24.05
2018-07-05T09:01:47.475Z,24.17
2018-07-05T09:06:50.015Z,24.35
2018-07-05T09:11:52.583Z,24.69
2018-07-05T09:16:55.139Z,24.73
2018-07-05T09:21:57.684Z,24.81
2018-07-05T09:27:00.230Z,24.65
2018-07-05T09:32:02.766Z,24.73
2018-07-05T09:37:05.381Z,25.18
2018-07-05T09:42:07.859Z,25.25
2018-07-05T09:47:10.403Z,25.63
2018-07-05T09:52:12.942Z,25.75
2018-07-05T09:57:15.491Z,26.11
2018-07-05T10:02:18.024Z,26.14
2018-07-05T10:07:20.579Z,26.07
2018-07-05T10:12:23.123Z,25.89
2018-07-05T10:17:25.669Z,25.99
2018-07-05T10:22:28.213Z,25.78
2018-07-05T10:27:30.750Z,25.50
2018-07-05T10:32:51.878Z,25.57
2018-07-05T10:37:54.385Z,25.63
2018-07-05T10:43:15.379Z,25.63
2018-07-05T10:48:36.591Z,25.66
2018-07-05T10:53:57.677Z,26.04
2018-07-05T10:59:19.518Z,26.34
2018-07-05T11:04:40.543Z,26.13
2018-07-05T11:10:01.735Z,26.22
2018-07-05T11:15:22.791Z,26.53
2018-07-05T11:20:43.866Z,26.50
2018-07-05T11:26:04.984Z,26.44
2018-07-05T11:31:27.049Z,26.56
2018-07-05T11:36:48.158Z,26.65
2018-07-05T11:42:10.102Z,26.62
2018-07-05T11:47:31.149Z,26.53
2018-07-05T11:52:52.415Z,26.56
2018-07-05T11:58:13.378Z,26.15
2018-07-05T12:03:34.559Z,26.41
2018-07-05T12:08:55.670Z,26.44
2018-07-05T12:14:16.907Z,26.49
2018-07-05T12:19:37.991Z,26.25
2018-07-05T12:24:59.274Z,26.16
2018-07-05T12:30:20.419Z,25.97
2018-07-05T12:35:41.407Z,25.72
2018-07-05T12:41:03.201Z,25.81
2018-07-05T12:46:24.401Z,25.15
2018-07-05T12:51:45.651Z,24.96
2018-07-05T12:57:06.759Z,24.88
2018-07-05T13:02:27.877Z,24.78
2018-07-05T13:07:49.198Z,24.50
2018-07-05T13:13:10.250Z,24.26
2018-07-05T13:18:31.440Z,24.25
2018-07-05T13:23:52.550Z,24.07
2018-07-05T13:29:13.856Z,23.83
2018-07-05T13:34:35.075Z,23.91
2018-07-05T13:39:56.139Z,23.94
2018-07-05T13:45:17.205Z,23.95
2018-07-05T13:50:39.591Z,23.73
2018-07-05T13:56:01.359Z,23.97
2018-07-05T14:01:22.442Z,23.87
2018-07-05T14:06:43.380Z,24.06
2018-07-05T14:12:05.500Z,24.32
2018-07-05T14:17:26.806Z,23.67
2018-07-05T14:22:47.840Z,23.54
2018-07-05T14:28:08.978Z,23.43
2018-07-05T14:33:30.166Z,23.12
2018-07-05T14:38:51.283Z,23.31
2018-07-05T14:44:13.035Z,23.18
2018-07-05T14:49:34.882Z,23.23
2018-07-05T14:54:56.729Z,23.27
2018-07-05T15:00:18.627Z,23.48
2018-07-05T15:05:39.700Z,23.59
2018-07-05T15:11:01.557Z,23.35
2018-07-05T15:16:22.691Z,23.41
2018-07-05T15:21:43.757Z,23.32
2018-07-05T15:27:05.012Z,23.24
2018-07-05T15:32:26.253Z,23.32
2018-07-05T15:37:47.437Z,23.76
2018-07-05T15:43:08.515Z,23.89
2018-07-05T15:48:30.414Z,23.88
2018-07-05T15:53:51.589Z,23.95
2018-07-05T16:04:48.799Z,23.87
2018-07-05T16:10:09.976Z,23.89
2018-07-05T16:15:31.005Z,23.49
2018-07-05T16:20:52.102Z,23.57
2018-07-05T16:26:14.046Z,23.41
2018-07-05T16:31:36.016Z,23.02
2018-07-05T16:36:56.967Z,23.08
2018-07-05T16:42:18.280Z,22.98
2018-07-05T16:47:40.107Z,22.80
2018-07-05T16:53:02.138Z,22.94
2018-07-05T16:58:23.525Z,22.83
2018-07-05T17:03:44.592Z,22.64
2018-07-05T17:09:05.741Z,22.67
2018-07-05T17:14:27.652Z,22.75
2018-07-05T17:19:48.730Z,22.68
2018-07-05T17:25:10.578Z,22.79
2018-07-05T17:30:36.547Z,22.85
2018-07-05T17:35:57.527Z,22.87
2018-07-05T17:41:18.474Z,22.58
2018-07-05T17:46:40.266Z,22.64
2018-07-05T17:52:01.223Z,22.70
2018-07-05T17:57:22.823Z,22.93
2018-07-05T18:02:44.152Z,22.83
2018-07-05T18:08:05.306Z,22.63
2018-07-05T18:13:26.381Z,22.68
2018-07-05T18:18:48.328Z,22.53
2018-07-05T18:24:10.874Z,22.91
2018-07-05T18:29:31.868Z,22.89
2018-07-05T18:34:53.014Z,22.84
2018-07-05T18:40:14.185Z,22.61
2018-07-05T18:45:36.007Z,22.50
2018-07-05T18:50:57.100Z,22.47
2018-07-05T18:56:18.295Z,22.40
2018-07-05T19:01:39.396Z,22.29
2018-07-05T19:07:00.544Z,22.28
2018-07-05T19:12:22.487Z,22.28
2018-07-05T19:17:44.412Z,22.16
2018-07-05T19:23:05.433Z,22.07
2018-07-05T19:28:26.501Z,22.03
2018-07-05T19:33:47.567Z,21.84
2018-07-05T19:39:08.915Z,21.38
2018-07-05T19:44:30.016Z,20.98
2018-07-05T19:49:51.442Z,20.24
2018-07-05T19:55:12.754Z,19.67
2018-07-05T20:00:35.769Z,19.59
2018-07-05T20:05:56.926Z,19.48
2018-07-05T20:11:18.222Z,19.36
2018-07-05T20:16:39.323Z,19.27
2018-07-05T20:22:01.160Z,19.25
2018-07-05T20:27:23.017Z,19.18
2018-07-05T20:32:44.987Z,19.20
2018-07-05T20:38:05.956Z,19.21
2018-07-05T20:43:27.156Z,19.25
2018-07-05T20:48:50.401Z,19.28
2018-07-05T20:54:12.247Z,19.25
2018-07-05T20:59:34.095Z,19.31
2018-07-05T21:04:55.210Z,19.30
2018-07-05T21:10:16.458Z,19.33
2018-07-05T21:15:38.324Z,19.46
2018-07-05T21:21:02.875Z,19.52
2018-07-05T21:26:23.850Z,19.49
2018-07-05T21:31:45.022Z,19.40
2018-07-05T21:37:06.021Z,19.40
2018-07-05T21:42:27.131Z,19.35
2018-07-05T21:47:48.260Z,19.33
2018-07-05T21:53:09.303Z,19.36
2018-07-05T21:58:30.314Z,19.32
2018-07-05T22:03:51.973Z,19.28
2018-07-05T22:09:13.047Z,19.20
2018-07-05T22:14:34.145Z,19.16
2018-07-05T22:25:56.992Z,19.23
